createdAt,value
2022-08-17T00:03:18.486Z,24.12
2022-08-17T00:08:23.365Z,24.13
2022-08-17T00:13:28.482Z,24.07
2022-08-17T00:19:01.476Z,24.08
2022-08-17T00:23:54.855Z,23.96
2022-08-17T00:28:56.789Z,23.91
2022-08-17T00:33:59.270Z,24.00
2022-08-17T00:39:00.870Z,23.93
2022-08-17T00:44:04.725Z,23.90
2022-08-17T00:49:07.641Z,23.85
2022-08-17T00:54:13.965Z,23.80
2022-08-17T00:59:19.021Z,23.67
2022-08-17T01:04:22.315Z,23.63
2022-08-17T01:09:27.744Z,23.65
2022-08-17T01:14:29.497Z,23.65
2022-08-17T01:19:34.351Z,23.60
2022-08-17T01:24:38.623Z,23.56
2022-08-17T01:29:44.788Z,23.46
2022-08-17T01:34:50.254Z,23.42
2022-08-17T01:40:32.849Z,23.30
2022-08-17T01:45:40.994Z,23.16
2022-08-17T01:50:44.597Z,23.18
2022-08-17T01:55:55.672Z,23.21
2022-08-17T02:01:00.601Z,23.08
2022-08-17T02:06:05.240Z,22.85
2022-08-17T02:11:13.702Z,22.90
2022-08-17T02:16:16.158Z,22.82
2022-08-17T02:21:17.758Z,22.84
2022-08-17T02:26:24.007Z,22.74
2022-08-17T02:31:27.475Z,22.67
2022-08-17T02:36:29.233Z,22.66
2022-08-17T02:41:30.937Z,22.58
2022-08-17T02:46:32.644Z,22.73
2022-08-17T02:51:35.134Z,22.63
2022-08-17T02:56:36.655Z,22.76
2022-08-17T03:01:38.328Z,22.74
2022-08-17T03:06:39.915Z,22.60
2022-08-17T03:11:41.419Z,22.51
2022-08-17T03:16:43.097Z,22.55
2022-08-17T03:21:45.510Z,22.61
2022-08-17T03:26:47.063Z,22.62
2022-08-17T03:31:49.770Z,22.59
2022-08-17T03:36:51.328Z,22.59
2022-08-17T03:41:52.806Z,22.59
2022-08-17T03:47:12.779Z,22.63
2022-08-17T03:52:32.975Z,22.63
2022-08-17T03:57:34.519Z,22.55
2022-08-17T04:02:36.110Z,22.49
2022-08-17T04:07:37.790Z,22.47
2022-08-17T04:12:51.380Z,22.45
2022-08-17T04:17:53.570Z,22.40
2022-08-17T04:22:56.383Z,22.76
2022-08-17T04:27:59.846Z,22.44
2022-08-17T04:33:07.103Z,22.61
2022-08-17T04:38:12.035Z,22.53
2022-08-17T04:43:21.225Z,22.64
2022-08-17T04:48:23.878Z,22.74
2022-08-17T04:53:36.368Z,22.75
2022-08-17T04:58:38.304Z,22.84
2022-08-17T05:03:39.938Z,22.93
2022-08-17T05:08:41.705Z,22.89
2022-08-17T05:13:43.474Z,22.89
2022-08-17T05:18:45.748Z,22.80
2022-08-17T05:23:54.676Z,22.67
2022-08-17T05:29:02.866Z,22.86
2022-08-17T05:34:04.617Z,23.01
2022-08-17T05:39:06.791Z,23.01
2022-08-17T05:44:08.248Z,23.23
2022-08-17T05:49:18.869Z,23.54
2022-08-17T05:54:53.863Z,23.67
2022-08-17T06:00:15.224Z,23.63
2022-08-17T06:05:39.521Z,23.77
2022-08-17T06:10:51.499Z,23.91
2022-08-17T06:16:33.291Z,24.05
2022-08-17T06:21:35.666Z,23.91
2022-08-17T06:26:43.254Z,23.77
2022-08-17T06:31:45.172Z,23.79
2022-08-17T06:37:04.149Z,23.79
2022-08-17T06:43:05.074Z,23.92
2022-08-17T06:48:09.409Z,23.88
2022-08-17T06:53:35.391Z,23.99
2022-08-17T06:58:40.285Z,23.74
2022-08-17T07:04:04.983Z,23.93
2022-08-17T07:09:15.772Z,24.04
2022-08-17T07:14:17.615Z,24.11
2022-08-17T07:19:22.468Z,23.97
2022-08-17T07:24:45.153Z,24.04
2022-08-17T07:30:10.282Z,24.36
2022-08-17T07:35:31.072Z,24.35
2022-08-17T07:40:48.010Z,24.19
2022-08-17T07:46:17.994Z,24.56
2022-08-17T07:51:25.228Z,24.58
2022-08-17T07:56:44.823Z,24.20
2022-08-17T08:02:06.156Z,24.46
2022-08-17T08:07:26.301Z,24.32
2022-08-17T08:12:48.006Z,24.47
2022-08-17T08:18:02.786Z,24.54
2022-08-17T08:23:19.956Z,24.56
2022-08-17T08:28:24.875Z,24.50
2022-08-17T08:33:39.813Z,24.60
2022-08-17T08:38:53.702Z,24.68
2022-08-17T08:44:21.983Z,24.73
2022-08-17T08:50:03.854Z,24.83
2022-08-17T08:55:16.852Z,24.81
2022-08-17T09:00:25.250Z,24.77
2022-08-17T09:05:55.907Z,24.70
2022-08-17T09:11:06.075Z,24.68
2022-08-17T09:16:16.195Z,24.65
2022-08-17T09:21:33.726Z,24.45
2022-08-17T09:26:39.366Z,24.39
2022-08-17T09:32:03.949Z,24.40
2022-08-17T09:37:35.447Z,24.44
2022-08-17T09:42:47.358Z,24.53
2022-08-17T09:47:59.736Z,24.55
2022-08-17T09:53:01.963Z,24.58
2022-08-17T09:58:29.273Z,24.30
2022-08-17T10:04:07.243Z,24.37
2022-08-17T10:09:20.051Z,24.24
2022-08-17T10:14:44.197Z,24.28
2022-08-17T10:20:00.891Z,24.04
2022-08-17T10:25:26.116Z,24.09
2022-08-17T10:30:35.946Z,23.43
2022-08-17T10:35:50.899Z,23.31
2022-08-17T10:40:53.107Z,23.18
2022-08-17T10:46:27.632Z,23.10
2022-08-17T10:51:38.290Z,22.95
2022-08-17T10:56:50.333Z,22.97
2022-08-17T11:02:06.503Z,22.68
2022-08-17T11:07:49.386Z,22.34
2022-08-17T11:13:01.199Z,22.35
2022-08-17T11:18:21.596Z,22.66
2022-08-17T11:23:53.696Z,23.01
2022-08-17T11:29:03.666Z,22.93
2022-08-17T11:34:23.048Z,23.00
2022-08-17T11:39:37.174Z,23.00
2022-08-17T11:44:52.376Z,22.87
2022-08-17T11:50:19.355Z,22.93
2022-08-17T11:55:37.491Z,23.02
2022-08-17T12:00:47.316Z,22.94
2022-08-17T12:05:50.228Z,23.08
2022-08-17T12:10:58.550Z,23.07
2022-08-17T12:16:00.819Z,22.97
2022-08-17T12:21:17.658Z,23.18
2022-08-17T12:26:24.935Z,23.25
2022-08-17T12:31:30.875Z,23.54
2022-08-17T12:36:33.092Z,23.84
2022-08-17T12:41:46.744Z,23.64
2022-08-17T12:46:54.407Z,23.85
2022-08-17T12:52:14.056Z,24.36
2022-08-17T12:57:44.101Z,24.57
2022-08-17T13:03:05.992Z,24.51
2022-08-17T13:08:15.218Z,24.32
2022-08-17T13:13:20.830Z,24.52
2022-08-17T13:18:28.451Z,24.59
2022-08-17T13:23:31.353Z,24.65
2022-08-17T13:28:36.601Z,24.72
2022-08-17T13:33:43.702Z,24.78
2022-08-17T13:38:49.657Z,24.91
2022-08-17T13:43:51.412Z,24.72
2022-08-17T13:49:11.980Z,24.72
2022-08-17T13:54:25.726Z,24.73
2022-08-17T13:59:53.275Z,24.89
2022-08-17T14:04:54.163Z,25.04
2022-08-17T14:10:00.417Z,24.80
2022-08-17T14:15:03.270Z,25.07
2022-08-17T14:20:07.782Z,25.18
2022-08-17T14:25:12.143Z,24.75
2022-08-17T14:30:14.630Z,25.06
2022-08-17T14:35:16.232Z,25.03
2022-08-17T14:40:20.822Z,25.42
2022-08-17T14:45:30.293Z,25.57
2022-08-17T14:50:37.401Z,25.64
2022-08-17T14:55:42.211Z,25.76
2022-08-17T15:00:43.911Z,25.78
2022-08-17T15:05:46.710Z,25.92
2022-08-17T15:10:50.693Z,26.02
2022-08-17T15:15:52.683Z,25.69
2022-08-17T15:20:54.603Z,25.79
2022-08-17T15:25:56.135Z,25.57
2022-08-17T15:30:57.630Z,25.54
2022-08-17T15:36:03.864Z,25.03
2022-08-17T15:41:08.563Z,25.13
2022-08-17T15:46:15.079Z,25.20
2022-08-17T15:51:16.499Z,25.66
2022-08-17T15:56:18.170Z,26.10
2022-08-17T16:02:21.606Z,26.04
2022-08-17T16:06:43.552Z,25.53
2022-08-17T16:11:45.991Z,25.65
2022-08-17T16:16:55.196Z,25.51
2022-08-17T16:21:56.658Z,25.64
2022-08-17T16:26:58.679Z,26.02
2022-08-17T16:32:13.420Z,26.20
2022-08-17T16:37:15.183Z,26.16
2022-08-17T16:42:30.669Z,26.00
2022-08-17T16:47:32.175Z,25.96
2022-08-17T16:52:34.142Z,25.85
2022-08-17T16:57:37.483Z,25.64
2022-08-17T17:02:49.564Z,25.60
2022-08-17T17:08:08.871Z,25.70
2022-08-17T17:13:19.919Z,25.56
2022-08-17T17:18:31.554Z,25.64
2022-08-17T17:23:42.615Z,25.60
2022-08-17T17:29:08.895Z,25.42
2022-08-17T17:34:15.783Z,25.18
2022-08-17T17:39:44.671Z,25.19
2022-08-17T17:45:09.639Z,25.20
2022-08-17T17:50:11.383Z,25.20
2022-08-17T17:55:25.995Z,24.96
2022-08-17T18:00:34.443Z,25.00
2022-08-17T18:06:09.844Z,25.00
2022-08-17T18:11:36.975Z,24.95
2022-08-17T18:16:42.653Z,24.85
2022-08-17T18:21:49.191Z,24.74
2022-08-17T18:26:56.718Z,24.74
2022-08-17T18:32:16.708Z,24.45
2022-08-17T18:37:40.717Z,24.45
2022-08-17T18:43:00.484Z,24.37
2022-08-17T18:48:02.556Z,24.26
2022-08-17T18:53:26.801Z,24.26
2022-08-17T18:58:31.922Z,23.78
2022-08-17T19:03:42.878Z,23.70
2022-08-17T19:08:44.410Z,23.69
2022-08-17T19:13:56.688Z,23.78
2022-08-17T19:19:21.770Z,23.51
2022-08-17T19:24:29.966Z,23.47
2022-08-17T19:29:37.748Z,23.37
2022-08-17T19:34:42.332Z,23.44
2022-08-17T19:40:02.624Z,23.28
2022-08-17T19:45:34.649Z,23.37
2022-08-17T19:50:48.226Z,23.18
2022-08-17T19:55:50.940Z,23.31
2022-08-17T20:00:54.238Z,23.17
2022-08-17T20:06:15.091Z,23.24
2022-08-17T20:11:52.088Z,23.04
2022-08-17T20:16:53.841Z,22.91
2022-08-17T20:22:14.272Z,22.96
2022-08-17T20:27:20.270Z,22.73
2022-08-17T20:32:35.493Z,22.65
2022-08-17T20:37:43.083Z,22.55
2022-08-17T20:42:44.643Z,22.57
2022-08-17T20:53:47.560Z,22.43
2022-08-17T20:58:49.252Z,22.53
2022-08-17T21:03:52.241Z,22.44
2022-08-17T21:09:29.897Z,22.34
2022-08-17T21:14:52.103Z,22.15
2022-08-17T21:20:16.286Z,22.07
2022-08-17T21:25:32.454Z,21.92
2022-08-17T21:30:33.842Z,21.97
2022-08-17T21:36:13.232Z,21.81
2022-08-17T21:41:29.446Z,21.74
2022-08-17T21:46:37.600Z,21.70
2022-08-17T21:51:49.801Z,21.76
2022-08-17T21:56:51.987Z,21.74
2022-08-17T22:01:55.918Z,21.63
2022-08-17T22:07:00.323Z,21.79
2022-08-17T22:12:04.888Z,21.85
2022-08-17T22:17:15.287Z,21.68
2022-08-17T22:22:32.775Z,21.72
2022-08-17T22:27:54.468Z,21.68
2022-08-17T22:32:56.859Z,21.84
2022-08-17T22:38:20.202Z,21.80
2022-08-17T22:43:26.224Z,21.65
2022-08-17T22:48:30.307Z,21.63
2022-08-17T22:53:53.763Z,21.40
2022-08-17T22:59:17.032Z,21.23
2022-08-17T23:04:36.792Z,21.34
2022-08-17T23:09:38.889Z,21.30
2022-08-17T23:14:45.355Z,21.26
2022-08-17T23:19:46.888Z,21.33
2022-08-17T23:24:51.457Z,21.31
2022-08-17T23:29:54.031Z,21.22
2022-08-17T23:34:56.505Z,21.14
2022-08-17T23:39:58.074Z,21.27
2022-08-17T23:44:59.667Z,21.21
2022-08-17T23:50:05.291Z,21.03
2022-08-17T23:55:07.691Z,21.08
